Time;durP1;ratioP1;P1;durP2;ratioP2;P2;SDS_P1;SDS_P2;PMS_P1;PMS_P2;Temp;Humidity;BMP_temperature;BMP_pressure;BME280_temperature;BME280_humidity;BME280_pressure;Samples;Min_cycle;Max_cycle;Signal;HPM_P1;HPM_P2
2022/11/07 00:01:16;;;;;;;6.93;1.40;;;20.30;1.00;;;;;;4879801;29;20101;-46
2022/11/07 00:03:43;;;;;;;7.97;1.80;;;20.20;1.00;;;;;;4879660;29;20041;-48
2022/11/07 00:06:10;;;;;;;6.22;1.27;;;20.30;1.00;;;;;;4879961;29;20076;-48
2022/11/07 00:08:36;;;;;;;9.52;1.80;;;20.20;1.00;;;;;;4879524;29;20053;-47
2022/11/07 00:11:04;;;;;;;9.38;1.77;;;20.20;1.00;;;;;;4879617;29;20456;-46
2022/11/07 00:13:32;;;;;;;5.32;1.50;;;20.10;1.00;;;;;;4879527;29;20047;-50
2022/11/07 00:16:01;;;;;;;6.32;1.48;;;20.10;1.00;;;;;;4877994;29;20453;-49
2022/11/07 00:18:28;;;;;;;9.93;1.75;;;20.00;1.00;;;;;;4879108;29;20045;-47
2022/11/07 00:20:55;;;;;;;8.70;2.15;;;20.00;1.00;;;;;;4879697;29;20045;-47
2022/11/07 00:23:22;;;;;;;6.13;1.58;;;19.90;1.00;;;;;;4879485;29;20045;-47
2022/11/07 00:25:49;;;;;;;7.00;1.83;;;19.90;1.00;;;;;;4879471;29;20045;-48
2022/11/07 00:28:16;;;;;;;10.35;2.30;;;19.90;1.00;;;;;;4879537;29;20123;-47
2022/11/07 00:30:42;;;;;;;7.57;1.48;;;19.90;1.00;;;;;;4879292;29;20460;-50
2022/11/07 00:33:09;;;;;;;9.35;1.75;;;19.80;1.00;;;;;;4873003;29;20056;-48
2022/11/07 00:35:41;;;;;;;6.22;1.40;;;19.80;1.00;;;;;;4860381;29;20109;-46
2022/11/07 00:38:07;;;;;;;7.22;2.10;;;19.80;1.00;;;;;;4861100;29;20049;-47
2022/11/07 00:40:34;;;;;;;8.88;1.50;;;19.80;1.00;;;;;;4860556;29;20049;-46
2022/11/07 00:43:01;;;;;;;9.07;1.48;;;19.70;1.00;;;;;;4860637;29;20042;-49
2022/11/07 00:45:28;;;;;;;8.60;1.55;;;19.70;1.00;;;;;;4860332;29;20050;-47
2022/11/07 00:47:55;;;;;;;6.50;2.00;;;19.70;1.00;;;;;;4860656;29;20055;-47
2022/11/07 00:50:22;;;;;;;12.20;1.55;;;19.60;1.00;;;;;;4860944;29;20053;-48
2022/11/07 00:52:49;;;;;;;9.18;1.50;;;19.60;1.00;;;;;;4861108;29;20081;-48
2022/11/07 00:55:15;;;;;;;8.00;1.95;;;19.60;1.00;;;;;;4861006;29;20042;-49
2022/11/07 00:57:42;;;;;;;10.57;2.72;;;19.50;1.00;;;;;;4860659;29;20061;-49
2022/11/07 01:00:10;;;;;;;5.60;1.63;;;19.60;1.00;;;;;;4860438;29;20042;-47
2022/11/07 01:02:37;;;;;;;12.60;1.90;;;19.50;1.00;;;;;;4860798;29;20087;-48
2022/11/07 01:05:10;;;;;;;6.30;2.33;;;19.50;1.00;;;;;;4862844;29;20045;-51
2022/11/07 01:07:39;;;;;;;10.68;1.85;;;19.40;1.00;;;;;;4864273;29;20053;-50
2022/11/07 01:10:06;;;;;;;9.77;1.48;;;19.40;1.00;;;;;;4863859;29;20072;-48
2022/11/07 01:12:34;;;;;;;8.30;1.50;;;19.40;1.00;;;;;;4864397;29;20420;-48
2022/11/07 01:15:02;;;;;;;9.02;1.85;;;19.40;1.00;;;;;;4864449;29;20049;-49
2022/11/07 01:17:30;;;;;;;10.30;2.13;;;19.40;1.00;;;;;;4864385;29;20119;-50
2022/11/07 01:19:57;;;;;;;5.40;1.30;;;19.30;1.00;;;;;;4863987;29;20110;-47
2022/11/07 01:22:23;;;;;;;9.80;2.55;;;19.30;1.00;;;;;;4864263;29;20049;-49
2022/11/07 01:24:50;;;;;;;7.72;1.90;;;19.30;1.00;;;;;;4864021;29;20098;-49
2022/11/07 01:27:17;;;;;;;7.32;1.63;;;19.20;1.00;;;;;;4864041;29;20105;-49
2022/11/07 01:29:44;;;;;;;6.65;1.52;;;19.20;1.00;;;;;;4863689;29;20078;-49
2022/11/07 01:32:11;;;;;;;5.28;1.52;;;19.20;1.00;;;;;;4863765;29;20046;-49
2022/11/07 01:34:38;;;;;;;5.85;1.30;;;19.20;1.00;;;;;;4881433;29;20471;-52
2022/11/07 01:37:04;;;;;;;9.57;2.03;;;19.20;1.00;;;;;;4882479;29;20399;-50
2022/11/07 01:39:31;;;;;;;7.32;1.50;;;19.10;1.00;;;;;;4882155;29;20116;-48
2022/11/07 01:41:58;;;;;;;6.03;1.58;;;19.10;1.00;;;;;;4882620;29;20415;-51
2022/11/07 01:44:25;;;;;;;5.43;1.67;;;19.10;1.00;;;;;;4882266;29;20045;-46
2022/11/07 01:46:56;;;;;;;6.32;1.55;;;19.10;1.00;;;;;;4882681;29;20048;-48
2022/11/07 01:49:28;;;;;;;8.73;2.13;;;19.00;1.00;;;;;;4881781;29;20049;-47
2022/11/07 01:52:06;;;;;;;6.93;1.30;;;19.10;1.00;;;;;;4882458;29;20053;-47
2022/11/07 01:55:01;;;;;;;11.48;2.28;;;19.00;1.00;;;;;;4882338;29;20515;-52
2022/11/07 01:57:38;;;;;;;6.43;1.33;;;19.00;1.00;;;;;;4882087;29;20479;-47
2022/11/07 02:00:10;;;;;;;7.63;2.33;;;19.00;1.00;;;;;;4881508;29;20037;-46
2022/11/07 02:02:37;;;;;;;7.18;1.88;;;19.00;1.00;;;;;;4882148;29;20045;-48
2022/11/07 02:05:07;;;;;;;10.23;1.80;;;18.90;1.00;;;;;;4882077;29;20055;-47
2022/11/07 02:07:36;;;;;;;8.13;3.35;;;18.90;1.00;;;;;;4882014;29;20053;-49
2022/11/07 02:10:04;;;;;;;6.72;2.35;;;18.90;1.00;;;;;;4881603;29;20049;-49
2022/11/07 02:12:31;;;;;;;10.98;1.73;;;18.90;1.00;;;;;;4881776;29;20053;-47
2022/11/07 02:14:57;;;;;;;5.35;1.15;;;18.80;1.00;;;;;;4880409;29;20478;-49
2022/11/07 02:17:24;;;;;;;8.73;2.47;;;18.80;1.00;;;;;;4880825;29;20556;-47
2022/11/07 02:19:54;;;;;;;12.10;2.47;;;18.80;1.00;;;;;;4881277;29;20036;-47
2022/11/07 02:22:55;;;;;;;3.70;1.30;;;18.80;1.00;;;;;;4881805;29;20052;-49
2022/11/07 02:25:22;;;;;;;10.13;1.60;;;18.80;1.00;;;;;;4881565;29;20504;-49
2022/11/07 02:27:55;;;;;;;6.32;1.42;;;18.80;1.00;;;;;;4881657;29;20136;-46
2022/11/07 02:30:26;;;;;;;10.00;2.65;;;18.80;1.00;;;;;;4881451;29;20124;-47
2022/11/07 02:32:53;;;;;;;10.48;2.65;;;18.70;1.00;;;;;;4877021;29;20053;-48
2022/11/07 02:35:37;;;;;;;6.97;1.20;;;18.70;1.00;;;;;;4862713;29;20038;-49
2022/11/07 02:38:25;;;;;;;8.10;2.50;;;18.70;1.00;;;;;;4862790;29;20500;-52
2022/11/07 02:40:58;;;;;;;6.63;2.08;;;18.70;1.00;;;;;;4862783;29;20105;-49
2022/11/07 02:43:28;;;;;;;16.70;4.93;;;18.70;1.00;;;;;;4862629;29;20045;-52
2022/11/07 02:45:57;;;;;;;8.02;1.50;;;18.70;1.00;;;;;;4862775;29;20052;-51
2022/11/07 02:48:38;;;;;;;8.20;2.47;;;18.60;1.00;;;;;;4862526;29;20050;-48
2022/11/07 02:51:05;;;;;;;9.02;2.45;;;18.60;1.00;;;;;;4862639;29;20046;-51
2022/11/07 02:53:32;;;;;;;7.35;1.85;;;18.60;1.00;;;;;;4862452;29;20098;-52
2022/11/07 02:55:59;;;;;;;11.48;2.13;;;18.60;1.00;;;;;;4862279;29;20050;-50
2022/11/07 02:58:26;;;;;;;8.65;2.25;;;18.60;1.00;;;;;;4862216;29;20527;-49
2022/11/07 03:00:52;;;;;;;7.65;1.80;;;18.60;1.00;;;;;;4862372;29;20538;-46
2022/11/07 03:03:19;;;;;;;9.38;2.17;;;18.60;1.00;;;;;;4862213;29;20484;-48
2022/11/07 03:05:46;;;;;;;5.75;1.85;;;18.60;1.00;;;;;;4862145;29;20100;-51
2022/11/07 03:08:13;;;;;;;10.32;2.55;;;18.60;1.00;;;;;;4862204;29;20045;-51
2022/11/07 03:10:40;;;;;;;8.35;1.65;;;18.50;1.00;;;;;;4861818;29;20082;-50
2022/11/07 03:13:08;;;;;;;8.77;2.55;;;18.50;1.00;;;;;;4861983;29;20065;-48
2022/11/07 03:15:35;;;;;;;12.65;2.45;;;18.50;1.00;;;;;;4862030;29;20128;-50
2022/11/07 03:18:02;;;;;;;9.00;1.75;;;18.50;1.00;;;;;;4862055;29;20521;-48
2022/11/07 03:20:29;;;;;;;11.63;2.78;;;18.50;1.00;;;;;;4861486;29;20049;-50
2022/11/07 03:22:56;;;;;;;8.73;1.60;;;18.50;1.00;;;;;;4862139;29;20129;-48
2022/11/07 03:25:23;;;;;;;8.75;1.52;;;18.50;1.00;;;;;;4861986;29;20136;-49
2022/11/07 03:27:50;;;;;;;9.15;1.90;;;18.40;1.00;;;;;;4861815;29;20554;-50
2022/11/07 03:30:17;;;;;;;19.13;2.28;;;18.40;1.00;;;;;;4861574;29;20041;-51
2022/11/07 03:32:44;;;;;;;12.32;3.17;;;18.40;1.00;;;;;;4864765;29;20041;-48
2022/11/07 03:35:11;;;;;;;14.38;3.25;;;18.40;1.00;;;;;;4879801;29;20052;-50
2022/11/07 03:37:38;;;;;;;9.88;2.20;;;18.40;1.00;;;;;;4880284;29;20097;-50
2022/11/07 03:40:06;;;;;;;10.43;1.88;;;18.40;1.00;;;;;;4879943;29;20044;-52
2022/11/07 03:42:40;;;;;;;11.70;2.65;;;18.40;1.00;;;;;;4880426;29;20072;-48
2022/11/07 03:45:08;;;;;;;13.20;2.63;;;18.40;1.00;;;;;;4880287;29;20064;-49
2022/11/07 03:47:37;;;;;;;10.15;2.13;;;18.30;1.00;;;;;;4880216;29;20052;-47
2022/11/07 03:50:05;;;;;;;10.68;2.42;;;18.30;1.00;;;;;;4879272;29;20100;-51
2022/11/07 03:52:32;;;;;;;7.72;1.48;;;18.30;1.00;;;;;;4880029;29;20053;-49
2022/11/07 03:54:59;;;;;;;7.30;1.85;;;18.30;1.00;;;;;;4879952;29;20040;-46
2022/11/07 03:57:25;;;;;;;12.80;2.40;;;18.30;1.00;;;;;;4879497;29;20041;-47
2022/11/07 03:59:52;;;;;;;9.70;2.28;;;18.30;1.00;;;;;;4879326;29;20040;-49
2022/11/07 04:02:19;;;;;;;6.90;1.88;;;18.30;1.00;;;;;;4879785;29;20045;-49
2022/11/07 04:04:46;;;;;;;15.23;3.58;;;18.20;1.00;;;;;;4879758;29;20098;-53
2022/11/07 04:07:13;;;;;;;13.88;2.22;;;18.20;1.00;;;;;;4880044;29;20041;-47
2022/11/07 04:09:39;;;;;;;13.18;2.13;;;18.20;1.00;;;;;;4879470;29;20049;-51
2022/11/07 04:17:38;;;;;;;8.05;2.20;;;18.20;1.00;;;;;;4879329;29;20059;-47
2022/11/07 04:20:05;;;;;;;13.15;2.67;;;18.20;1.00;;;;;;4879244;29;20053;-47
2022/11/07 04:22:33;;;;;;;7.85;1.98;;;18.20;1.00;;;;;;4879722;29;20073;-51
2022/11/07 04:25:00;;;;;;;15.70;2.97;;;18.20;1.00;;;;;;4879883;29;20439;-50
2022/11/07 04:27:42;;;;;;;14.10;4.10;;;18.20;1.00;;;;;;4879650;29;20056;-49
2022/11/07 04:30:27;;;;;;;13.93;3.13;;;18.20;1.00;;;;;;4879166;29;20055;-48
2022/11/07 04:32:56;;;;;;;10.10;2.33;;;18.10;1.00;;;;;;4875490;29;20123;-52
2022/11/07 04:35:33;;;;;;;10.65;2.13;;;18.10;1.00;;;;;;4860828;29;20045;-50
2022/11/07 04:38:00;;;;;;;10.20;2.47;;;18.10;1.00;;;;;;4861328;29;20120;-49
2022/11/07 04:40:28;;;;;;;8.75;2.45;;;18.10;1.00;;;;;;4860121;29;20094;-48
2022/11/07 04:42:55;;;;;;;9.50;1.83;;;18.10;1.00;;;;;;4860964;29;20488;-47
2022/11/07 04:45:22;;;;;;;10.88;2.25;;;18.10;1.00;;;;;;4860706;29;20548;-48
2022/11/07 04:47:49;;;;;;;8.80;2.45;;;18.10;1.00;;;;;;4861025;29;20050;-49
2022/11/07 04:50:17;;;;;;;18.20;2.83;;;18.10;1.00;;;;;;4860353;29;20417;-52
2022/11/07 04:52:46;;;;;;;9.68;1.80;;;18.10;1.00;;;;;;4860789;29;20049;-49
2022/11/07 04:55:19;;;;;;;10.25;2.55;;;18.10;1.00;;;;;;4860680;29;20132;-48
2022/11/07 04:57:46;;;;;;;10.52;1.73;;;18.10;1.00;;;;;;4860792;29;20056;-47
2022/11/07 05:00:13;;;;;;;9.98;2.58;;;18.10;1.00;;;;;;4860431;29;20041;-49
2022/11/07 05:02:40;;;;;;;6.53;1.73;;;18.10;1.00;;;;;;4860846;29;20052;-49
2022/11/07 05:05:08;;;;;;;10.15;2.88;;;18.00;1.00;;;;;;4860626;29;20045;-47
2022/11/07 05:07:34;;;;;;;12.05;3.15;;;18.00;1.00;;;;;;4860921;29;20097;-47
2022/11/07 05:10:01;;;;;;;10.07;1.98;;;18.00;1.00;;;;;;4858717;29;20046;-51
2022/11/07 05:12:28;;;;;;;6.05;2.03;;;18.00;1.00;;;;;;4859145;29;20045;-47
2022/11/07 05:14:55;;;;;;;15.60;3.63;;;18.00;1.00;;;;;;4850394;29;20403;-52
2022/11/07 05:17:22;;;;;;;13.38;2.55;;;18.00;1.00;;;;;;4851860;29;20437;-46
2022/11/07 05:19:53;;;;;;;9.57;2.58;;;18.00;1.00;;;;;;4854677;29;20069;-47
2022/11/07 05:25:06;;;;;;;6.10;2.08;;;17.90;1.00;;;;;;4860582;29;20137;-50
2022/11/07 05:27:33;;;;;;;12.38;3.15;;;17.90;1.00;;;;;;4860583;29;20441;-50
2022/11/07 05:30:00;;;;;;;7.90;2.28;;;17.90;1.00;;;;;;4859606;29;20049;-48
2022/11/07 05:32:27;;;;;;;28.65;4.10;;;17.90;1.00;;;;;;4847257;29;20129;-50
2022/11/07 05:34:54;;;;;;;13.55;2.55;;;17.90;1.00;;;;;;4864795;29;20385;-50
2022/11/07 05:37:20;;;;;;;10.50;2.42;;;17.90;1.00;;;;;;4859961;29;20046;-51
2022/11/07 05:39:47;;;;;;;11.57;1.73;;;17.90;1.00;;;;;;4859532;29;20045;-51
2022/11/07 05:42:20;;;;;;;8.15;2.05;;;17.80;1.00;;;;;;4860430;29;20381;-48
2022/11/07 05:44:47;;;;;;;8.20;2.05;;;17.90;1.00;;;;;;4860348;29;20129;-51
2022/11/07 05:47:14;;;;;;;7.82;1.77;;;17.80;1.00;;;;;;4860729;29;20053;-53
2022/11/07 05:49:41;;;;;;;11.73;1.73;;;17.90;1.00;;;;;;4858740;29;20407;-50
2022/11/07 05:52:08;;;;;;;10.43;2.63;;;17.80;1.00;;;;;;4862387;29;20046;-49
2022/11/07 05:54:34;;;;;;;10.98;2.92;;;17.80;1.00;;;;;;4863512;29;20050;-51
2022/11/07 05:57:01;;;;;;;9.95;2.63;;;17.80;1.00;;;;;;4863567;29;20049;-50
2022/11/07 05:59:28;;;;;;;8.38;2.92;;;17.80;1.00;;;;;;4860497;29;20493;-52
2022/11/07 06:01:55;;;;;;;8.27;2.22;;;17.80;1.00;;;;;;4844630;29;20046;-53
2022/11/07 06:04:22;;;;;;;10.48;1.90;;;17.80;1.00;;;;;;4856400;29;20053;-49
2022/11/07 06:06:49;;;;;;;35.33;2.60;;;17.80;1.00;;;;;;4843602;29;20054;-48
2022/11/07 06:09:16;;;;;;;9.95;1.75;;;17.80;1.00;;;;;;4844000;29;20050;-51
2022/11/07 06:11:43;;;;;;;7.75;2.50;;;17.80;1.00;;;;;;4844958;29;20046;-49
2022/11/07 06:14:09;;;;;;;14.40;2.13;;;17.80;1.00;;;;;;4844651;29;20430;-50
2022/11/07 06:16:36;;;;;;;12.57;2.10;;;17.80;1.00;;;;;;4844647;29;20492;-49
2022/11/07 06:19:03;;;;;;;22.45;3.17;;;17.80;1.00;;;;;;4844376;29;20102;-49
2022/11/07 06:21:30;;;;;;;14.45;2.22;;;17.80;1.00;;;;;;4844508;29;20052;-48
2022/11/07 06:23:58;;;;;;;11.25;2.30;;;17.80;1.00;;;;;;4844426;29;20058;-50
2022/11/07 06:26:25;;;;;;;7.85;1.77;;;17.80;1.00;;;;;;4844512;29;20098;-50
2022/11/07 06:28:52;;;;;;;10.38;2.00;;;17.80;1.00;;;;;;4844274;29;20049;-51
2022/11/07 06:31:19;;;;;;;9.50;2.60;;;17.80;1.00;;;;;;4844203;29;20049;-47
2022/11/07 06:33:49;;;;;;;8.63;2.15;;;17.80;1.00;;;;;;4866235;29;20049;-47
2022/11/07 06:36:17;;;;;;;10.45;2.00;;;17.70;1.00;;;;;;4881829;29;20053;-51
2022/11/07 06:38:44;;;;;;;10.52;2.47;;;17.80;1.00;;;;;;4881024;29;20484;-46
2022/11/07 06:41:13;;;;;;;8.75;1.85;;;17.70;1.00;;;;;;4882040;29;20038;-50
2022/11/07 06:43:40;;;;;;;6.25;1.52;;;17.70;1.00;;;;;;4881040;29;20415;-52
2022/11/07 06:46:11;;;;;;;9.68;1.92;;;17.70;1.00;;;;;;4881246;29;20460;-50
2022/11/07 06:48:38;;;;;;;9.60;1.98;;;17.70;1.00;;;;;;4880978;29;20053;-53
2022/11/07 06:51:08;;;;;;;7.90;1.95;;;17.70;1.00;;;;;;4880930;29;20057;-50
2022/11/07 06:53:35;;;;;;;5.47;1.55;;;17.70;1.00;;;;;;4881069;29;20065;-51
2022/11/07 06:56:04;;;;;;;7.38;2.70;;;17.70;1.00;;;;;;4880958;29;20049;-50
2022/11/07 06:58:32;;;;;;;8.13;1.38;;;17.70;1.00;;;;;;4880407;29;20132;-51
2022/11/07 07:01:03;;;;;;;8.55;2.00;;;17.70;1.00;;;;;;4880885;29;20045;-47
2022/11/07 07:03:31;;;;;;;8.18;1.85;;;17.70;1.00;;;;;;4880667;29;20388;-48
2022/11/07 07:06:03;;;;;;;7.57;1.80;;;17.70;1.00;;;;;;4880777;29;20097;-49
2022/11/07 07:08:30;;;;;;;6.72;1.88;;;17.70;1.00;;;;;;4880787;29;20526;-46
2022/11/07 07:11:02;;;;;;;4.97;1.23;;;17.70;1.00;;;;;;4880827;29;20049;-46
2022/11/07 07:13:29;;;;;;;9.43;1.52;;;17.70;1.00;;;;;;4880598;29;20061;-52
2022/11/07 07:15:57;;;;;;;11.45;3.30;;;17.60;1.00;;;;;;4880670;29;20093;-49
2022/11/07 07:18:25;;;;;;;8.68;1.92;;;17.60;1.00;;;;;;4880112;29;20227;-51
2022/11/07 07:21:00;;;;;;;7.78;1.55;;;17.60;1.00;;;;;;4880449;29;20116;-49
2022/11/07 07:23:28;;;;;;;9.55;1.60;;;17.60;1.00;;;;;;4880430;29;20045;-49
2022/11/07 07:25:54;;;;;;;5.32;1.13;;;17.60;1.00;;;;;;4880700;29;20492;-47
2022/11/07 07:28:21;;;;;;;6.55;1.92;;;17.60;1.00;;;;;;4880072;29;20049;-52
2022/11/07 07:30:49;;;;;;;10.57;1.58;;;17.60;1.00;;;;;;4880056;29;20136;-50
2022/11/07 07:33:18;;;;;;;5.80;1.38;;;17.60;1.00;;;;;;4872877;29;20149;-50
2022/11/07 07:35:45;;;;;;;10.80;2.78;;;17.60;1.00;;;;;;4861768;29;20053;-48
2022/11/07 07:38:12;;;;;;;10.13;2.00;;;17.60;1.00;;;;;;4857266;29;20041;-48
2022/11/07 07:40:39;;;;;;;12.27;1.40;;;17.50;1.00;;;;;;4860807;29;20154;-50
2022/11/07 07:43:05;;;;;;;8.95;1.90;;;17.60;1.00;;;;;;4861427;29;20432;-48
2022/11/07 07:45:32;;;;;;;6.32;1.38;;;17.50;1.00;;;;;;4861623;29;20048;-47
2022/11/07 07:48:02;;;;;;;7.35;1.75;;;17.50;1.00;;;;;;4861518;29;20045;-48
2022/11/07 07:50:29;;;;;;;10.50;2.35;;;17.50;1.00;;;;;;4860987;29;20492;-48
2022/11/07 07:52:57;;;;;;;11.05;1.92;;;17.50;1.00;;;;;;4861467;29;20128;-48
2022/11/07 07:55:24;;;;;;;4.68;1.27;;;17.50;1.00;;;;;;4861367;29;20101;-49
2022/11/07 07:57:51;;;;;;;6.35;1.38;;;17.50;1.00;;;;;;4861164;29;20045;-49
2022/11/07 08:00:18;;;;;;;5.35;1.90;;;17.50;1.00;;;;;;4860841;29;20489;-46
2022/11/07 08:02:45;;;;;;;8.25;2.38;;;17.50;1.00;;;;;;4861113;29;20046;-48
2022/11/07 08:05:13;;;;;;;8.10;1.83;;;17.50;1.00;;;;;;4861246;29;20045;-49
2022/11/07 08:07:47;;;;;;;5.07;1.40;;;17.50;1.00;;;;;;4861009;29;20113;-46
2022/11/07 08:10:16;;;;;;;9.80;2.20;;;17.50;1.00;;;;;;4859751;29;20377;-47
2022/11/07 08:13:02;;;;;;;6.50;1.25;;;17.50;1.00;;;;;;4861125;29;20054;-51
2022/11/07 08:15:29;;;;;;;10.60;2.38;;;17.50;1.00;;;;;;4860470;29;20101;-47
2022/11/07 08:18:00;;;;;;;7.75;1.60;;;17.50;1.00;;;;;;4861152;29;20484;-49
2022/11/07 08:20:28;;;;;;;9.63;2.15;;;17.50;1.00;;;;;;4861191;29;20132;-54
2022/11/07 08:23:06;;;;;;;8.45;2.28;;;17.50;1.00;;;;;;4861009;29;20050;-51
2022/11/07 08:25:47;;;;;;;5.78;1.65;;;17.50;1.00;;;;;;4861117;29;20129;-50
2022/11/07 08:28:14;;;;;;;13.77;1.95;;;17.50;1.00;;;;;;4861194;29;20388;-52
2022/11/07 08:30:41;;;;;;;11.75;1.60;;;17.50;1.00;;;;;;4860703;29;20109;-49
2022/11/07 08:33:08;;;;;;;10.15;1.60;;;17.50;1.00;;;;;;4866973;29;20041;-50
2022/11/07 08:35:35;;;;;;;12.45;2.13;;;17.50;1.00;;;;;;4879478;29;20106;-51
2022/11/07 08:38:08;;;;;;;;;;;17.50;1.00;;;;;;4879964;29;20526;-49
2022/11/07 08:40:35;;;;;;;7.72;2.70;;;17.50;1.00;;;;;;4878801;29;19995;-49
2022/11/07 08:43:02;;;;;;;10.90;2.08;;;17.50;1.00;;;;;;4879521;29;20089;-48
2022/11/07 08:45:29;;;;;;;8.13;2.22;;;17.50;1.00;;;;;;4879116;29;20036;-49
2022/11/07 08:47:57;;;;;;;7.85;1.48;;;17.40;1.00;;;;;;4879489;29;20045;-49
2022/11/07 08:50:25;;;;;;;10.85;3.45;;;17.40;1.00;;;;;;4878899;29;20140;-48
2022/11/07 08:52:52;;;;;;;8.05;1.35;;;17.40;1.00;;;;;;4879188;29;20411;-50
2022/11/07 08:55:23;;;;;;;13.88;2.45;;;17.40;1.00;;;;;;4879181;29;20079;-50
2022/11/07 08:57:50;;;;;;;7.72;1.73;;;17.40;1.00;;;;;;4879120;29;20476;-48
2022/11/07 09:00:18;;;;;;;5.28;2.00;;;17.40;1.00;;;;;;4879006;29;20067;-47
2022/11/07 09:02:45;;;;;;;11.60;2.60;;;17.40;1.00;;;;;;4879311;29;20475;-47
2022/11/07 09:05:32;;;;;;;10.85;2.28;;;17.40;1.00;;;;;;4878869;29;20113;-49
2022/11/07 09:07:58;;;;;;;9.68;1.98;;;17.40;1.00;;;;;;4879075;29;20086;-47
2022/11/07 09:10:25;;;;;;;11.23;1.98;;;17.50;1.00;;;;;;4878997;29;20480;-49
2022/11/07 09:12:52;;;;;;;8.50;1.92;;;17.40;1.00;;;;;;4879355;29;20444;-50
2022/11/07 09:15:20;;;;;;;9.70;2.17;;;17.40;1.00;;;;;;4878981;29;20108;-46
2022/11/07 09:17:47;;;;;;;8.27;2.55;;;17.40;1.00;;;;;;4877823;29;20415;-50
2022/11/07 09:20:14;;;;;;;10.88;2.67;;;17.40;1.00;;;;;;4877407;29;20380;-49
2022/11/07 09:22:41;;;;;;;5.78;1.83;;;17.40;1.00;;;;;;4878843;29;20089;-49
2022/11/07 09:25:09;;;;;;;8.90;1.77;;;17.40;1.00;;;;;;4879930;29;20060;-47
2022/11/07 09:27:36;;;;;;;7.38;1.50;;;17.40;1.00;;;;;;4882622;29;20049;-49
2022/11/07 09:30:04;;;;;;;6.82;2.47;;;17.40;1.00;;;;;;4882266;29;20411;-48
2022/11/07 09:32:31;;;;;;;7.63;2.50;;;17.40;1.00;;;;;;4880872;29;20109;-49
2022/11/07 09:35:12;;;;;;;10.45;1.65;;;17.40;1.00;;;;;;4863974;29;20403;-48
2022/11/07 09:37:40;;;;;;;10.75;1.92;;;17.40;1.00;;;;;;4863747;29;20090;-50
2022/11/07 09:40:39;;;;;;;7.82;1.80;;;17.40;1.00;;;;;;4863420;29;20587;-47
2022/11/07 09:43:27;;;;;;;9.13;2.13;;;17.40;1.00;;;;;;4863662;29;20042;-50
2022/11/07 09:46:18;;;;;;;9.95;2.50;;;17.40;1.00;;;;;;4863640;29;20515;-51
2022/11/07 09:48:54;;;;;;;9.25;1.85;;;17.40;1.00;;;;;;4863192;29;20052;-50
2022/11/07 09:51:43;;;;;;;9.52;1.63;;;17.40;1.00;;;;;;4863243;29;20049;-49
2022/11/07 09:54:20;;;;;;;12.38;1.65;;;17.40;1.00;;;;;;4863378;29;20057;-49
2022/11/07 09:56:47;;;;;;;9.43;2.10;;;17.40;1.00;;;;;;4863499;29;20065;-48
2022/11/07 09:59:43;;;;;;;10.30;1.92;;;17.40;1.00;;;;;;4863056;29;20102;-50
2022/11/07 10:02:14;;;;;;;9.65;1.70;;;17.40;1.00;;;;;;4857377;29;20058;-50
2022/11/07 10:04:42;;;;;;;7.53;1.75;;;17.40;1.00;;;;;;4863316;29;20046;-49
2022/11/07 10:07:38;;;;;;;9.95;1.15;;;17.40;1.00;;;;;;4863347;29;20041;-47
2022/11/07 10:10:23;;;;;;;6.82;2.13;;;17.40;1.00;;;;;;4838997;29;20061;-48
2022/11/07 10:13:14;;;;;;;8.25;1.50;;;17.40;1.00;;;;;;4863347;29;20049;-47
2022/11/07 10:15:47;;;;;;;7.95;1.65;;;17.40;1.00;;;;;;4863527;29;20045;-51
2022/11/07 10:18:27;;;;;;;13.27;1.77;;;17.40;1.00;;;;;;4863354;29;20052;-48
2022/11/07 10:21:20;;;;;;;6.70;1.67;;;17.40;1.00;;;;;;4863060;29;20046;-50
2022/11/07 10:24:36;;;;;;;11.30;2.90;;;17.40;1.00;;;;;;4862979;29;20049;-47
2022/11/07 10:27:08;;;;;;;8.77;1.65;;;17.40;1.00;;;;;;4863162;29;20453;-47
2022/11/07 10:29:52;;;;;;;5.43;1.58;;;17.40;1.00;;;;;;4862690;29;20132;-50
2022/11/07 10:32:28;;;;;;;11.20;2.42;;;17.40;1.00;;;;;;4862729;29;20419;-51
2022/11/07 10:35:09;;;;;;;10.82;2.00;;;17.40;1.00;;;;;;4844281;29;20049;-49
2022/11/07 10:37:36;;;;;;;13.20;2.15;;;17.40;1.00;;;;;;4843532;29;20046;-53
2022/11/07 10:40:15;;;;;;;7.20;1.40;;;17.40;1.00;;;;;;4843930;29;20053;-49
2022/11/07 10:42:44;;;;;;;8.32;1.95;;;17.40;1.00;;;;;;4844320;29;20052;-50
2022/11/07 10:45:13;;;;;;;7.03;1.73;;;17.30;1.00;;;;;;4844347;29;20085;-47
2022/11/07 10:47:41;;;;;;;7.22;2.45;;;17.40;1.00;;;;;;4844035;29;20050;-50
2022/11/07 10:50:20;;;;;;;8.50;1.92;;;17.40;1.00;;;;;;4843950;29;20091;-48
2022/11/07 10:53:01;;;;;;;6.72;1.83;;;17.30;1.00;;;;;;4844124;29;20106;-49
2022/11/07 10:55:40;;;;;;;10.60;1.52;;;17.40;1.00;;;;;;4844521;29;20099;-51
2022/11/07 10:58:15;;;;;;;5.85;1.65;;;17.40;1.00;;;;;;4843756;29;20050;-47
2022/11/07 11:00:43;;;;;;;7.22;1.58;;;17.40;1.00;;;;;;4843583;29;20042;-47
2022/11/07 11:03:22;;;;;;;9.48;2.58;;;17.40;1.00;;;;;;4843916;29;20049;-50
2022/11/07 11:06:09;;;;;;;12.15;3.15;;;17.40;1.00;;;;;;4844335;29;20045;-52
2022/11/07 11:08:37;;;;;;;10.82;1.58;;;17.40;1.00;;;;;;4843469;29;20046;-51
2022/11/07 11:11:28;;;;;;;9.27;1.58;;;17.40;1.00;;;;;;4843679;29;20114;-49
2022/11/07 11:14:04;;;;;;;7.90;2.05;;;17.40;1.00;;;;;;4844155;29;20120;-50
2022/11/07 11:16:35;;;;;;;6.30;1.58;;;17.40;1.00;;;;;;4843602;29;20061;-48
2022/11/07 11:19:03;;;;;;;8.10;2.95;;;17.40;1.00;;;;;;4843262;29;20050;-51
2022/11/07 11:21:42;;;;;;;8.65;2.90;;;17.40;1.00;;;;;;4843615;29;20049;-51
2022/11/07 11:24:38;;;;;;;7.53;1.95;;;17.40;1.00;;;;;;4843748;29;20050;-47
2022/11/07 11:27:19;;;;;;;8.93;1.88;;;17.40;1.00;;;;;;4842328;29;20118;-52
2022/11/07 11:29:54;;;;;;;9.50;1.80;;;17.40;1.00;;;;;;4843144;29;20050;-52
2022/11/07 11:32:43;;;;;;;9.65;2.25;;;17.40;1.00;;;;;;4843437;29;20058;-50
2022/11/07 11:35:32;;;;;;;9.63;1.90;;;17.40;1.00;;;;;;4880502;29;20419;-51
2022/11/07 11:38:22;;;;;;;10.00;2.15;;;17.40;1.00;;;;;;4880116;29;20053;-50
2022/11/07 11:40:55;;;;;;;9.63;1.73;;;17.40;1.00;;;;;;4880269;29;20051;-49
2022/11/07 11:44:01;;;;;;;11.35;2.17;;;17.40;1.00;;;;;;4880022;29;20041;-50
2022/11/07 11:46:44;;;;;;;8.48;1.73;;;17.40;1.00;;;;;;4880763;29;20123;-49
2022/11/07 11:49:18;;;;;;;10.10;2.40;;;17.40;1.00;;;;;;4879937;29;20072;-52
2022/11/07 11:52:02;;;;;;;7.53;2.13;;;17.40;1.00;;;;;;4880009;29;20048;-49
2022/11/07 11:54:29;;;;;;;6.90;2.63;;;17.40;1.00;;;;;;4880136;29;20495;-48
2022/11/07 11:57:00;;;;;;;8.75;2.33;;;17.40;1.00;;;;;;4879980;29;20488;-51
2022/11/07 12:00:01;;;;;;;7.57;2.00;;;17.40;1.00;;;;;;4879298;29;20114;-50
2022/11/07 12:03:00;;;;;;;11.00;1.75;;;17.40;1.00;;;;;;4866198;29;20080;-49
2022/11/07 12:05:46;;;;;;;11.52;2.17;;;17.40;1.00;;;;;;4879890;29;20041;-50
2022/11/07 12:08:31;;;;;;;6.93;1.60;;;17.40;1.00;;;;;;4880053;29;20053;-52
2022/11/07 12:11:10;;;;;;;12.02;2.25;;;17.40;1.00;;;;;;4879801;29;20048;-51
2022/11/07 12:14:14;;;;;;;11.65;2.22;;;17.40;1.00;;;;;;4879781;29;20055;-50
2022/11/07 12:17:11;;;;;;;8.77;2.83;;;17.40;1.00;;;;;;4879734;29;20048;-50
2022/11/07 12:19:53;;;;;;;9.88;2.97;;;17.40;1.00;;;;;;4879111;29;20060;-54
2022/11/07 12:22:35;;;;;;;10.18;2.80;;;17.40;1.00;;;;;;4879564;29;20044;-53
2022/11/07 12:25:12;;;;;;;10.45;2.33;;;17.40;1.00;;;;;;4879493;29;20045;-50
2022/11/07 12:27:52;;;;;;;6.20;1.75;;;17.40;1.00;;;;;;4879829;29;20048;-49
2022/11/07 12:30:34;;;;;;;12.43;1.92;;;17.40;1.00;;;;;;4879237;29;20045;-50
2022/11/07 12:33:19;;;;;;;15.57;2.40;;;17.40;1.00;;;;;;4874079;29;20049;-51
2022/11/07 12:36:10;;;;;;;8.55;2.85;;;17.40;1.00;;;;;;4860812;29;20080;-50
2022/11/07 12:38:43;;;;;;;8.65;2.17;;;17.40;1.00;;;;;;4860522;29;20042;-49
2022/11/07 12:41:28;;;;;;;13.02;2.47;;;17.40;1.00;;;;;;4860835;29;20042;-52
2022/11/07 12:44:19;;;;;;;7.47;1.90;;;17.40;1.00;;;;;;4860851;29;20041;-52
2022/11/07 12:47:01;;;;;;;9.75;2.00;;;17.40;1.00;;;;;;4861136;29;20132;-50
2022/11/07 12:50:13;;;;;;;12.93;2.33;;;17.40;1.00;;;;;;4860437;29;20049;-52
2022/11/07 12:52:39;;;;;;;10.68;2.17;;;17.40;1.00;;;;;;4846992;29;20072;-52
2022/11/07 12:55:36;;;;;;;12.90;2.35;;;17.30;1.00;;;;;;4860970;29;20057;-51
2022/11/07 12:58:04;;;;;;;13.35;2.60;;;17.40;1.00;;;;;;4856964;29;20061;-48
2022/11/07 13:00:31;;;;;;;12.02;2.83;;;17.40;1.00;;;;;;4861747;29;20054;-51
2022/11/07 13:03:17;;;;;;;11.57;3.08;;;17.40;1.00;;;;;;4864455;29;20056;-51
2022/11/07 13:06:02;;;;;;;11.30;2.63;;;17.40;1.00;;;;;;4864526;29;20045;-53
2022/11/07 13:09:02;;;;;;;7.55;2.33;;;17.40;1.00;;;;;;4864127;29;20049;-53
2022/11/07 13:11:41;;;;;;;14.65;2.22;;;17.40;1.00;;;;;;4864511;29;20392;-52
2022/11/07 13:14:17;;;;;;;7.47;1.77;;;17.40;1.00;;;;;;4864299;29;20052;-53
2022/11/07 13:17:03;;;;;;;9.85;2.58;;;17.40;1.00;;;;;;4864156;29;20050;-51
2022/11/07 13:19:42;;;;;;;3.67;1.73;;;17.40;1.00;;;;;;4863781;29;20049;-55
2022/11/07 13:22:15;;;;;;;9.63;1.90;;;17.40;1.00;;;;;;4864566;29;20044;-53
2022/11/07 13:25:00;;;;;;;8.68;1.92;;;17.40;1.00;;;;;;4864110;29;20076;-50
2022/11/07 13:27:34;;;;;;;6.20;1.80;;;17.40;1.00;;;;;;4864116;29;20121;-49